Terminal Aerodrome Forecast
Issued by NWS Sterling, VA

Current Version | Previous Version | Graphics & Text | Print | Product List | Glossary On
Versions: 1 2 3 4 5 6 7 8 9 10 11 12 13 14 15 16 17 18 19 20 21 22 23 24 25 26 27 28
000
FTUS41 KLWX 311501 AAA
TAFDCA
TAF AMD
KDCA 311501Z 3115/0112 17010KT P6SM FEW150 SCT250
     FM312300 19010KT P6SM BKN070
     FM010600 18006KT P6SM BKN120
     FM011000 19006KT 5SM BR BKN070=

USA.gov is the U.S. government's official web portal to all federal, state and local government web resources and services.